Minneola, Florida
Current Conditions -  °F | °C
As of 5:53 PM on Saturday 25 Oct 2014 (Local Time) from KLEE Reporting Station
Clear Clear  
Wind Chill: 76°   Ceiling: Unl
Heat Index: 76°   Visibility: 10mi
Dew Point: 47°   Wind: 6mph
Humidity: 36%   Direction: 320°NW
Pressure: 29.96"   Gusts: NA
Location:  28.57°N, 81.75°W
Report Text: KLEE 252153Z AUTO 32005KT 10SM CLR 24/08 A2996 RMK AO2 SLP144 T02440083
Loading
Personal Weather Stations






























Interactive Weather Map
Tropical Storm Tracking
New forecast layout! Learn more

10-Day Weather Forecast

Advertisements
Track Severe Weather on mobile